Rechercher aéroport 
image banner adimage banner ad
image banner ad

DAOF - Tindouf

Situé à Tindouf, Algeria

ICAO - DAOF, IATA - TIN

Données fournies par Airmate  

Information générale

Coordonnées: N27°42'0" W8°9'60"
Élévation : 1453 feet MSL.
 
Voir autres Aéroports à Tindouf Province

Données opérationnelles

Accessible au public
Heure actuelle UTC:
Heure actuelle locale:
Météo
METAR: DAOF 250100Z 31012KT 8000 FEW046 30/05 Q1018
TAF: TAF DAOF 242300Z 2500/2509 32012KT 8000 SCT046 TEMPO 2500/2503 FEW030CB
Voir NOTAMs / SUP AIP / TFR affectant cet aéroport [VIEW]
Fréquences de communication: [VIEW]

Pistes:

Identifiant RWYQFULongueur (ft)Largeur (ft)SurfaceLDA (ft)
08R76°9843148
26L256°9843148
08L76°9843148
26R256°9843148

Coordonnées de l'aéroport

Adresse: Tindouf Algeria

Vue satellite de DAOF